createdAt,value
2018-03-17T00:00:46.804Z,93537.87
2018-03-17T00:03:15.810Z,93539.16
2018-03-17T00:05:44.077Z,93534.12
2018-03-17T00:08:13.100Z,93532.53
2018-03-17T00:10:41.356Z,93535.58
2018-03-17T00:13:10.396Z,93534.00
2018-03-17T00:15:38.641Z,93529.32
2018-03-17T00:18:07.651Z,93530.49
2018-03-17T00:20:36.202Z,93526.31
2018-03-17T00:23:04.442Z,93522.87
2018-03-17T00:25:32.703Z,93519.30
2018-03-17T00:28:00.981Z,93515.02
2018-03-17T00:30:29.248Z,93509.84
2018-03-17T00:32:58.268Z,93507.73
2018-03-17T00:35:26.525Z,93512.66
2018-03-17T00:37:55.539Z,93518.39
2018-03-17T00:40:23.804Z,93526.84
2018-03-17T00:42:52.820Z,93514.47
2018-03-17T00:45:21.086Z,93523.72
2018-03-17T00:47:49.336Z,93510.55
2018-03-17T00:50:17.593Z,93507.94
2018-03-17T00:52:45.852Z,93507.83
2018-03-17T00:55:14.112Z,93493.58
2018-03-17T00:57:42.388Z,93480.47
2018-03-17T01:00:11.405Z,93479.55
2018-03-17T01:02:39.653Z,93479.20
2018-03-17T01:05:08.680Z,93470.27
2018-03-17T01:07:36.939Z,93472.85
2018-03-17T01:10:05.218Z,93465.48
2018-03-17T01:12:34.148Z,93468.53
2018-03-17T01:15:02.406Z,93471.45
2018-03-17T01:17:30.666Z,93474.34
2018-03-17T01:19:59.686Z,93475.33
2018-03-17T01:22:27.941Z,93474.59
2018-03-17T01:24:56.961Z,93466.30
2018-03-17T01:27:25.961Z,93462.91
2018-03-17T01:29:54.229Z,93460.61
2018-03-17T01:32:23.242Z,93457.58
2018-03-17T01:34:51.488Z,93451.53
2018-03-17T01:37:19.752Z,93448.31
2018-03-17T01:39:48.018Z,93443.33
2018-03-17T01:42:16.288Z,93437.16
2018-03-17T01:44:44.549Z,93428.21
2018-03-17T01:47:12.806Z,93424.21
2018-03-17T01:49:41.828Z,93413.83
2018-03-17T01:52:10.103Z,93405.93
2018-03-17T01:54:38.359Z,93410.84
2018-03-17T01:57:07.382Z,93405.67
2018-03-17T01:59:35.636Z,93401.25
2018-03-17T02:02:04.675Z,93401.00
2018-03-17T02:04:32.915Z,93397.25
2018-03-17T02:07:01.930Z,93397.77
2018-03-17T02:09:30.190Z,93391.25
2018-03-17T02:11:59.213Z,93384.80
2018-03-17T02:14:28.228Z,93387.92
2018-03-17T02:16:56.480Z,93388.50
2018-03-17T02:19:25.512Z,93387.80
2018-03-17T02:21:53.768Z,93381.09
2018-03-17T02:24:22.020Z,93378.03
2018-03-17T02:26:51.045Z,93378.45
2018-03-17T02:29:19.285Z,93375.44
2018-03-17T02:31:47.533Z,93372.20
2018-03-17T02:34:15.794Z,93371.78
2018-03-17T02:36:44.045Z,93371.80
2018-03-17T02:39:13.046Z,93368.47
2018-03-17T02:41:42.065Z,93363.65
2018-03-17T02:44:10.339Z,93357.58
2018-03-17T02:46:38.582Z,93357.58
2018-03-17T02:49:06.824Z,93360.02
2018-03-17T02:51:35.093Z,93352.28
2018-03-17T02:54:03.338Z,93344.38
2018-03-17T02:56:32.340Z,93350.28
2018-03-17T02:59:01.364Z,93343.60
2018-03-17T03:01:29.631Z,93335.97
2018-03-17T03:03:57.905Z,93337.13
2018-03-17T03:06:26.150Z,93339.47
2018-03-17T03:08:54.406Z,93341.00
2018-03-17T03:11:22.653Z,93326.50
2018-03-17T03:13:50.896Z,93330.09
2018-03-17T03:16:19.151Z,93325.41
2018-03-17T03:18:47.401Z,93323.91
2018-03-17T03:21:15.688Z,93318.08
2018-03-17T03:23:43.934Z,93316.45
2018-03-17T03:26:12.940Z,93316.42
2018-03-17T03:28:41.960Z,93308.52
2018-03-17T03:31:10.208Z,93305.83
2018-03-17T03:33:39.236Z,93307.90
2018-03-17T03:36:07.492Z,93301.11
2018-03-17T03:38:36.369Z,93294.90
2018-03-17T03:41:04.620Z,93298.88
2018-03-17T03:43:32.867Z,93287.80
2018-03-17T03:46:01.112Z,93293.03
2018-03-17T03:48:30.131Z,93288.84
2018-03-17T03:50:59.166Z,93280.98
2018-03-17T03:53:27.397Z,93271.34
2018-03-17T03:55:56.407Z,93278.67
2018-03-17T03:58:24.659Z,93276.53
2018-03-17T04:00:52.905Z,93267.69
2018-03-17T04:03:21.155Z,93269.89
2018-03-17T04:05:49.431Z,93269.98
2018-03-17T04:08:17.668Z,93273.63
2018-03-17T04:10:45.916Z,93272.73
2018-03-17T04:13:14.176Z,93274.73
2018-03-17T04:15:42.416Z,93269.41
2018-03-17T04:18:10.676Z,93268.89
2018-03-17T04:20:38.937Z,93272.36
2018-03-17T04:23:07.188Z,93270.47
2018-03-17T04:25:35.444Z,93267.61
2018-03-17T04:28:03.711Z,93269.72
2018-03-17T04:30:32.535Z,93264.63
2018-03-17T04:33:01.554Z,93262.86
2018-03-17T04:35:29.815Z,93252.55
2018-03-17T04:37:58.854Z,93258.11
2018-03-17T04:40:27.096Z,93254.72
2018-03-17T04:42:55.356Z,93250.58
2018-03-17T04:45:24.380Z,93254.31
2018-03-17T04:47:52.635Z,93249.88
2018-03-17T04:50:21.650Z,93252.52
2018-03-17T04:52:50.684Z,93248.81
2018-03-17T04:55:18.927Z,93248.14
2018-03-17T04:57:47.173Z,93245.84
2018-03-17T05:00:15.643Z,93246.72
2018-03-17T05:02:45.142Z,93245.28
2018-03-17T05:05:13.389Z,93246.71
2018-03-17T05:07:41.652Z,93238.23
2018-03-17T05:10:10.688Z,93237.45
2018-03-17T05:12:38.933Z,93236.46
2018-03-17T05:15:07.949Z,93232.33
2018-03-17T05:17:36.218Z,93221.41
2018-03-17T05:20:05.235Z,93226.69
2018-03-17T05:22:33.492Z,93226.69
2018-03-17T05:25:02.511Z,93227.81
2018-03-17T05:27:30.784Z,93230.96
2018-03-17T05:29:59.055Z,93228.86
2018-03-17T05:32:27.312Z,93226.56
2018-03-17T05:34:55.584Z,93225.34
2018-03-17T05:37:23.845Z,93217.97
2018-03-17T05:39:52.101Z,93222.84
2018-03-17T05:42:20.352Z,93212.70
2018-03-17T05:44:49.381Z,93206.83
2018-03-17T05:47:18.005Z,93207.23
2018-03-17T05:49:46.257Z,93205.59
2018-03-17T05:52:14.507Z,93202.08
2018-03-17T05:54:43.517Z,93203.00
2018-03-17T05:57:11.772Z,93196.63
2018-03-17T05:59:40.788Z,93196.88
2018-03-17T06:02:09.032Z,93195.34
2018-03-17T06:04:37.288Z,93195.37
2018-03-17T06:07:05.537Z,93199.22
2018-03-17T06:09:33.800Z,93189.09
2018-03-17T06:12:02.069Z,93187.87
2018-03-17T06:14:31.093Z,93184.73
2018-03-17T06:16:59.340Z,93182.89
2018-03-17T06:19:28.370Z,93179.74
2018-03-17T06:21:56.615Z,93180.48
2018-03-17T06:24:25.681Z,93172.47
2018-03-17T06:26:53.927Z,93172.81
2018-03-17T06:29:22.173Z,93157.70
2018-03-17T06:31:51.664Z,93155.58
2018-03-17T06:34:19.927Z,93150.36
2018-03-17T06:36:49.196Z,93149.73
2018-03-17T06:39:17.699Z,93145.36
2018-03-17T06:41:45.935Z,93140.11
2018-03-17T06:44:14.944Z,93138.88
2018-03-17T06:46:43.964Z,93127.07
2018-03-17T06:49:12.220Z,93132.73
2018-03-17T06:51:41.223Z,93128.35
2018-03-17T06:54:09.693Z,93131.49
2018-03-17T06:56:38.700Z,93122.27
2018-03-17T06:59:07.712Z,93123.23
2018-03-17T07:01:35.980Z,93121.97
2018-03-17T07:04:04.990Z,93122.62
2018-03-17T07:06:33.234Z,93111.36
2018-03-17T07:09:01.504Z,93108.14
2018-03-17T07:11:29.749Z,93108.70
2018-03-17T07:13:58.005Z,93105.43
2018-03-17T07:16:26.281Z,93103.33
2018-03-17T07:18:55.301Z,93099.33
2018-03-17T07:21:23.545Z,93089.64
2018-03-17T07:23:53.105Z,93089.76
2018-03-17T07:26:21.357Z,93085.45
2018-03-17T07:28:49.624Z,93085.51
2018-03-17T07:31:18.642Z,93077.27
2018-03-17T07:33:46.899Z,93079.38
2018-03-17T07:36:15.924Z,93072.89
2018-03-17T07:38:44.167Z,93072.86
2018-03-17T07:41:13.182Z,93059.39
2018-03-17T07:43:42.205Z,93057.34
2018-03-17T07:46:10.456Z,93059.44
2018-03-17T07:48:39.581Z,93056.06
2018-03-17T07:51:08.617Z,93052.19
2018-03-17T07:53:36.849Z,93049.67
2018-03-17T07:56:05.099Z,93046.75
2018-03-17T07:58:34.116Z,93038.89
2018-03-17T08:01:02.360Z,93031.62
2018-03-17T08:03:30.624Z,93035.70
2018-03-17T08:05:58.880Z,93023.17
2018-03-17T08:08:27.136Z,93023.67
2018-03-17T08:10:56.169Z,93022.02
2018-03-17T08:13:24.413Z,93012.03
2018-03-17T08:15:53.913Z,93010.86
2018-03-17T08:18:22.936Z,93006.92
2018-03-17T08:20:51.192Z,93012.09
2018-03-17T08:23:20.341Z,93003.28
2018-03-17T08:25:48.599Z,93008.30
2018-03-17T08:28:16.846Z,93003.48
2018-03-17T08:30:45.876Z,93001.20
2018-03-17T08:33:14.124Z,92997.39
2018-03-17T08:35:43.160Z,92994.35
2018-03-17T08:38:11.433Z,92988.94
2018-03-17T08:40:39.688Z,92982.94
2018-03-17T08:43:08.732Z,92987.82
2018-03-17T08:45:36.988Z,92974.47
2018-03-17T08:48:05.235Z,92981.16
2018-03-17T08:50:34.278Z,92979.73
2018-03-17T08:53:02.554Z,92966.41
2018-03-17T08:55:30.816Z,92974.92
2018-03-17T08:57:59.117Z,92980.87
2018-03-17T09:00:28.151Z,92973.67
2018-03-17T09:02:56.472Z,92974.89
2018-03-17T09:05:26.732Z,92969.55
2018-03-17T09:07:54.985Z,92977.78
2018-03-17T09:10:23.252Z,92975.95
2018-03-17T09:12:52.277Z,92982.33
2018-03-17T09:15:20.540Z,92987.97
2018-03-17T09:17:49.583Z,92981.19
2018-03-17T09:20:17.920Z,92978.73
2018-03-17T09:22:46.173Z,92970.00
2018-03-17T09:25:15.204Z,92979.88
2018-03-17T09:27:43.477Z,92976.50
2018-03-17T09:30:12.492Z,92970.45
2018-03-17T09:32:40.756Z,92976.12
2018-03-17T09:35:09.784Z,92972.45
2018-03-17T09:37:38.036Z,92970.86
2018-03-17T09:40:06.292Z,92977.53
2018-03-17T09:42:34.587Z,92972.58
2018-03-17T09:45:03.610Z,92966.47
2018-03-17T09:47:31.848Z,92968.25
2018-03-17T09:50:00.112Z,92956.80
2018-03-17T09:52:28.371Z,92961.78
2018-03-17T09:54:56.612Z,92958.66
2018-03-17T09:57:24.873Z,92968.78
2018-03-17T09:59:53.124Z,92964.58
2018-03-17T10:02:21.390Z,92963.19
2018-03-17T10:04:49.685Z,92971.84
2018-03-17T10:07:18.612Z,92966.87
2018-03-17T10:09:47.646Z,92961.66
2018-03-17T10:12:15.908Z,92951.39
2018-03-17T10:14:44.945Z,92954.77
2018-03-17T10:17:13.969Z,92949.20
2018-03-17T10:19:42.236Z,92949.77
2018-03-17T10:22:10.484Z,92949.69
2018-03-17T10:24:38.748Z,92947.18
2018-03-17T10:27:07.008Z,92943.76
2018-03-17T10:29:35.286Z,92931.17
2018-03-17T10:32:03.522Z,92923.92
2018-03-17T10:34:31.772Z,92927.50
2018-03-17T10:37:00.032Z,92920.11
2018-03-17T10:39:29.058Z,92918.10
2018-03-17T10:42:00.256Z,92915.98
2018-03-17T10:44:28.513Z,92924.45
2018-03-17T10:46:56.760Z,92923.73
2018-03-17T10:49:25.012Z,92912.59
2018-03-17T10:51:53.276Z,92909.94
2018-03-17T10:54:22.164Z,92909.96
2018-03-17T10:56:50.424Z,92903.02
2018-03-17T10:59:18.685Z,92900.48
2018-03-17T11:01:46.934Z,92899.60
2018-03-17T11:04:15.944Z,92902.78
2018-03-17T11:06:44.969Z,92893.94
2018-03-17T11:09:14.049Z,92895.83
2018-03-17T11:11:42.312Z,92900.54
2018-03-17T11:14:11.340Z,92891.05
2018-03-17T11:16:39.673Z,92896.17
2018-03-17T11:19:07.932Z,92904.48
2018-03-17T11:21:37.503Z,92903.28
2018-03-17T11:24:05.768Z,92905.83
2018-03-17T11:26:34.786Z,92896.69
2018-03-17T11:29:03.050Z,92897.47
2018-03-17T11:31:32.067Z,92903.67
2018-03-17T11:34:00.365Z,92894.69
2018-03-17T11:36:28.630Z,92891.70
2018-03-17T11:38:56.888Z,92886.42
2018-03-17T11:41:25.916Z,92879.29
2018-03-17T11:43:54.172Z,92865.03
2018-03-17T11:46:22.440Z,92852.71
2018-03-17T11:48:51.456Z,92851.39
2018-03-17T11:51:19.960Z,92860.38
2018-03-17T11:53:48.956Z,92866.03
2018-03-17T11:56:17.255Z,92853.27
2018-03-17T11:58:45.476Z,92842.80
2018-03-17T12:01:14.523Z,92838.94
2018-03-17T12:03:42.769Z,92840.17
2018-03-17T12:06:11.021Z,92842.31
2018-03-17T12:08:39.292Z,92846.75
2018-03-17T12:11:07.544Z,92843.69
2018-03-17T12:13:35.788Z,92842.45
2018-03-17T12:16:04.808Z,92846.72
2018-03-17T12:18:33.060Z,92848.12
2018-03-17T12:21:02.080Z,92843.66
2018-03-17T12:23:30.346Z,92839.59
2018-03-17T12:25:58.649Z,92842.75
2018-03-17T12:28:26.916Z,92843.04
2018-03-17T12:30:55.928Z,92855.09
2018-03-17T12:33:24.194Z,92855.62
2018-03-17T12:35:52.444Z,92847.62
2018-03-17T12:38:20.679Z,92854.83
2018-03-17T12:40:48.933Z,92852.75
2018-03-17T12:43:17.194Z,92854.44
2018-03-17T12:45:46.208Z,92852.80
2018-03-17T12:48:14.476Z,92855.72
2018-03-17T12:50:43.490Z,92860.24
2018-03-17T12:53:11.756Z,92854.73
2018-03-17T12:55:40.774Z,92851.63
2018-03-17T12:58:09.016Z,92843.86
2018-03-17T13:00:38.053Z,92832.81
2018-03-17T13:03:06.292Z,92829.02
2018-03-17T13:05:34.552Z,92839.53
2018-03-17T13:08:02.832Z,92840.62
2018-03-17T13:10:31.076Z,92837.05
2018-03-17T13:12:59.339Z,92827.59
2018-03-17T13:15:27.601Z,92832.30
2018-03-17T13:17:56.612Z,92835.11
2018-03-17T13:20:24.874Z,92837.30
2018-03-17T13:23:10.648Z,92839.28
2018-03-17T13:25:38.907Z,92835.50
2018-03-17T13:28:29.581Z,92831.72
2018-03-17T13:30:57.845Z,92828.61
2018-03-17T13:33:26.100Z,92834.14
2018-03-17T13:36:12.714Z,92821.44
2018-03-17T13:38:40.965Z,92829.34
2018-03-17T13:41:09.199Z,92822.53
2018-03-17T13:43:37.454Z,92833.09
2018-03-17T13:46:05.697Z,92831.30
2018-03-17T13:48:34.055Z,92826.11
2018-03-17T13:51:02.297Z,92825.90
2018-03-17T13:53:30.540Z,92826.16
2018-03-17T13:55:58.808Z,92836.41
2018-03-17T13:58:27.066Z,92827.88
2018-03-17T14:00:55.317Z,92834.34
2018-03-17T14:03:23.579Z,92829.75
2018-03-17T14:05:52.605Z,92826.30
2018-03-17T14:08:20.854Z,92823.73
2018-03-17T14:10:49.880Z,92831.61
2018-03-17T14:13:18.132Z,92823.66
2018-03-17T14:15:47.156Z,92825.97
2018-03-17T14:18:15.394Z,92809.62
2018-03-17T14:20:44.535Z,92818.95
2018-03-17T14:23:12.792Z,92811.56
2018-03-17T14:25:41.808Z,92832.02
2018-03-17T14:28:10.070Z,92832.93
2018-03-17T14:30:39.074Z,92831.91
2018-03-17T14:33:08.113Z,92825.55
2018-03-17T14:35:36.348Z,92825.50
2018-03-17T14:38:05.369Z,92820.09
2018-03-17T14:40:33.622Z,92823.00
2018-03-17T14:43:02.645Z,92828.93
2018-03-17T14:45:30.898Z,92825.79
2018-03-17T14:47:59.933Z,92828.02
2018-03-17T14:50:28.284Z,92829.76
2018-03-17T14:52:57.292Z,92837.92
2018-03-17T14:55:25.548Z,92830.27
2018-03-17T14:57:54.564Z,92824.03
2018-03-17T15:00:22.889Z,92830.39
2018-03-17T15:02:51.839Z,92825.85
2018-03-17T15:05:20.859Z,92835.47
2018-03-17T15:07:49.121Z,92837.10
2018-03-17T15:10:17.376Z,92830.36
2018-03-17T15:12:45.629Z,92829.55
2018-03-17T15:15:13.884Z,92834.90
2018-03-17T15:17:42.135Z,92834.88
2018-03-17T15:20:11.159Z,92839.06
2018-03-17T15:22:39.408Z,92837.09
2018-03-17T15:25:08.425Z,92841.39
2018-03-17T15:27:36.688Z,92837.70
2018-03-17T15:30:05.704Z,92838.83
2018-03-17T15:32:33.956Z,92838.16
2018-03-17T15:35:02.989Z,92832.34
2018-03-17T15:37:31.232Z,92835.48
2018-03-17T15:40:00.255Z,92839.11
2018-03-17T15:42:28.521Z,92838.80
2018-03-17T15:44:58.778Z,92842.62
2018-03-17T15:47:27.032Z,92841.25
2018-03-17T15:49:56.049Z,92836.45
2018-03-17T15:52:24.302Z,92842.85
2018-03-17T15:54:53.330Z,92842.69
2018-03-17T15:57:21.576Z,92843.98
2018-03-17T15:59:50.605Z,92842.28
2018-03-17T16:02:18.845Z,92849.14
2018-03-17T16:04:47.093Z,92854.42
2018-03-17T16:07:15.344Z,92855.40
2018-03-17T16:09:43.600Z,92864.92
2018-03-17T16:12:12.622Z,92857.22
2018-03-17T16:14:40.883Z,92871.23
2018-03-17T16:17:09.894Z,92870.39
2018-03-17T16:19:38.160Z,92873.70
2018-03-17T16:22:07.168Z,92870.27
2018-03-17T16:24:35.421Z,92864.42
2018-03-17T16:27:04.328Z,92866.41
2018-03-17T16:29:33.342Z,92872.45
2018-03-17T16:32:01.589Z,92868.27
2018-03-17T16:34:29.853Z,92863.98
2018-03-17T16:36:58.093Z,92867.73
2018-03-17T16:39:26.366Z,92870.50
2018-03-17T16:41:54.608Z,92864.33
2018-03-17T16:44:22.856Z,92866.76
2018-03-17T16:46:51.131Z,92878.25
2018-03-17T16:49:19.392Z,92874.02
2018-03-17T16:51:47.691Z,92878.72
2018-03-17T16:54:16.664Z,92875.19
2018-03-17T16:56:44.908Z,92881.73
2018-03-17T16:59:13.165Z,92877.19
2018-03-17T17:01:41.412Z,92873.42
2018-03-17T17:04:09.672Z,92873.04
2018-03-17T17:06:38.686Z,92883.41
2018-03-17T17:09:06.932Z,92887.69
2018-03-17T17:11:35.184Z,92888.30
2018-03-17T17:14:04.681Z,92884.47
2018-03-17T17:16:32.948Z,92891.91
2018-03-17T17:19:02.452Z,92893.84
2018-03-17T17:21:30.712Z,92885.42
2018-03-17T17:23:59.717Z,92895.03
2018-03-17T17:26:27.985Z,92894.39
2018-03-17T17:28:57.015Z,92902.73
2018-03-17T17:31:25.266Z,92904.30
2018-03-17T17:33:53.520Z,92907.44
2018-03-17T17:36:21.772Z,92907.97
2018-03-17T17:38:50.033Z,92913.80
2018-03-17T17:41:18.292Z,92908.16
2018-03-17T17:43:46.540Z,92916.66
2018-03-17T17:46:14.800Z,92916.69
2018-03-17T17:48:43.053Z,92919.39
2018-03-17T17:51:11.319Z,92916.74
2018-03-17T17:53:39.589Z,92921.81
2018-03-17T17:56:07.838Z,92921.08
2018-03-17T17:58:36.083Z,92917.58
2018-03-17T18:01:04.344Z,92920.79
2018-03-17T18:03:32.580Z,92917.28
2018-03-17T18:06:00.848Z,92913.02
2018-03-17T18:08:29.098Z,92915.31
2018-03-17T18:10:57.369Z,92914.42
2018-03-17T18:13:25.625Z,92907.03
2018-03-17T18:15:54.638Z,92904.84
2018-03-17T18:18:22.880Z,92908.41
2018-03-17T18:20:51.147Z,92915.28
2018-03-17T18:23:19.393Z,92920.14
2018-03-17T18:25:47.645Z,92920.81
2018-03-17T18:28:15.917Z,92927.98
2018-03-17T18:30:46.163Z,92931.70
2018-03-17T18:33:14.426Z,92926.80
2018-03-17T18:35:43.488Z,92927.04
2018-03-17T18:38:11.732Z,92934.94
2018-03-17T18:40:39.996Z,92927.52
2018-03-17T18:43:08.252Z,92925.27
2018-03-17T18:45:36.492Z,92928.14
2018-03-17T18:48:04.759Z,92928.73
2018-03-17T18:50:33.016Z,92930.94
2018-03-17T18:53:01.262Z,92932.43
2018-03-17T18:55:29.512Z,92933.39
2018-03-17T18:57:57.756Z,92935.11
2018-03-17T19:00:26.028Z,92937.35
2018-03-17T19:02:55.042Z,92939.98
2018-03-17T19:05:23.344Z,92937.84
2018-03-17T19:07:51.621Z,92935.66
2018-03-17T19:10:19.929Z,92936.14
2018-03-17T19:12:48.200Z,92939.45
2018-03-17T19:15:16.450Z,92940.30
2018-03-17T19:17:44.713Z,92943.70
2018-03-17T19:20:13.728Z,92948.25
2018-03-17T19:22:41.969Z,92946.15
2018-03-17T19:25:10.258Z,92948.48
2018-03-17T19:27:39.283Z,92955.45
2018-03-17T19:30:07.535Z,92948.31
2018-03-17T19:32:36.609Z,92944.92
2018-03-17T19:35:04.824Z,92946.47
2018-03-17T19:37:33.883Z,92949.33
2018-03-17T19:40:02.161Z,92948.60
2018-03-17T19:42:30.436Z,92957.67
2018-03-17T19:44:58.692Z,92950.98
2018-03-17T19:47:26.953Z,92954.58
2018-03-17T19:49:55.238Z,92955.14
2018-03-17T19:52:23.491Z,92954.66
2018-03-17T19:54:52.523Z,92960.62
2018-03-17T19:57:20.817Z,92958.66
2018-03-17T19:59:49.085Z,92960.68
2018-03-17T20:02:17.323Z,92955.11
2018-03-17T20:04:45.635Z,92961.50
2018-03-17T20:07:14.668Z,92955.11
2018-03-17T20:09:42.928Z,92957.02
2018-03-17T20:12:11.202Z,92953.20
2018-03-17T20:14:39.460Z,92958.30
2018-03-17T20:17:08.479Z,92958.63
2018-03-17T20:19:36.719Z,92960.67
2018-03-17T20:22:04.976Z,92956.86
2018-03-17T20:24:33.218Z,92960.30
2018-03-17T20:27:01.468Z,92964.66
2018-03-17T20:29:29.741Z,92958.13
2018-03-17T20:31:57.988Z,92964.22
2018-03-17T20:34:26.227Z,92963.66
2018-03-17T20:36:54.484Z,92967.50
2018-03-17T20:39:22.728Z,92962.66
2018-03-17T20:41:50.987Z,92958.93
2018-03-17T20:44:19.248Z,92963.63
2018-03-17T20:46:47.508Z,92959.72
2018-03-17T20:49:15.760Z,92956.47
2018-03-17T20:51:44.021Z,92964.92
2018-03-17T20:54:12.282Z,92968.45
2018-03-17T20:56:40.552Z,92977.91
2018-03-17T20:59:08.804Z,92972.77
2018-03-17T21:01:37.061Z,92979.14
2018-03-17T21:04:05.325Z,92971.38
2018-03-17T21:06:33.577Z,92975.17
2018-03-17T21:09:01.824Z,92969.14
2018-03-17T21:11:30.073Z,92961.91
2018-03-17T21:13:58.330Z,92971.75
2018-03-17T21:16:26.571Z,92978.28
2018-03-17T21:18:55.602Z,92970.23
2018-03-17T21:21:23.860Z,92978.38
2018-03-17T21:23:52.886Z,92975.29
2018-03-17T21:26:21.148Z,92972.39
2018-03-17T21:28:50.160Z,92976.99
2018-03-17T21:31:18.415Z,92975.95
2018-03-17T21:33:47.422Z,92975.32
2018-03-17T21:36:16.494Z,92977.90
2018-03-17T21:38:44.742Z,92977.91
2018-03-17T21:41:12.988Z,92979.44
2018-03-17T21:43:41.256Z,92981.02
2018-03-17T21:46:10.080Z,92975.72
2018-03-17T21:48:38.332Z,92984.34
2018-03-17T21:51:07.353Z,92990.25
2018-03-17T21:53:35.593Z,92992.52
2018-03-17T21:56:04.633Z,92993.48
2018-03-17T21:58:32.888Z,92996.69
2018-03-17T22:01:01.914Z,92998.08
2018-03-17T22:03:30.187Z,92998.88
2018-03-17T22:05:58.438Z,92992.16
2018-03-17T22:08:28.864Z,92993.33
2018-03-17T22:10:57.876Z,92992.91
2018-03-17T22:13:26.893Z,92992.92
2018-03-17T22:15:55.156Z,92997.36
2018-03-17T22:18:23.408Z,92995.75
2018-03-17T22:20:51.664Z,92992.61
2018-03-17T22:23:19.933Z,92988.95
2018-03-17T22:25:48.195Z,92989.13
2018-03-17T22:28:16.447Z,92992.05
2018-03-17T22:30:45.472Z,92999.77
2018-03-17T22:33:13.722Z,93008.39
2018-03-17T22:35:42.749Z,92997.75
2018-03-17T22:38:11.123Z,92994.92
2018-03-17T22:40:39.387Z,92993.73
2018-03-17T22:43:07.665Z,92997.58
2018-03-17T22:45:36.772Z,92999.45
2018-03-17T22:48:05.811Z,93001.22
2018-03-17T22:50:34.079Z,93002.90
2018-03-17T22:53:02.330Z,92996.47
2018-03-17T22:55:31.344Z,92999.30
2018-03-17T22:57:59.614Z,93010.00
2018-03-17T23:00:27.862Z,93004.03
2018-03-17T23:02:56.133Z,93008.23
2018-03-17T23:05:24.456Z,93001.93
2018-03-17T23:07:52.708Z,93007.81
2018-03-17T23:10:20.972Z,93000.91
2018-03-17T23:12:50.742Z,92999.59
2018-03-17T23:15:19.060Z,92998.79
2018-03-17T23:17:47.278Z,92999.37
2018-03-17T23:20:16.302Z,93003.63
2018-03-17T23:22:44.564Z,93006.12
2018-03-17T23:25:12.819Z,93014.20
2018-03-17T23:27:41.068Z,93009.45
2018-03-17T23:30:09.325Z,93014.10
2018-03-17T23:32:37.586Z,93021.77
2018-03-17T23:35:06.612Z,93024.66
2018-03-17T23:37:34.876Z,93022.19
2018-03-17T23:40:03.131Z,93031.84
2018-03-17T23:42:32.144Z,93029.13
2018-03-17T23:45:00.407Z,93019.98
2018-03-17T23:47:28.676Z,93021.36
2018-03-17T23:49:56.964Z,93029.89
2018-03-17T23:52:26.812Z,93030.95
2018-03-17T23:54:55.081Z,93027.22
2018-03-17T23:57:24.097Z,93021.85
2018-03-17T23:59:52.369Z,93019.64
